Time;durP1;ratioP1;P1;durP2;ratioP2;P2;SDS_P1;SDS_P2;PMS_P1;PMS_P2;Temp;Humidity;BMP_temperature;BMP_pressure;BME280_temperature;BME280_humidity;BME280_pressure;Samples;Min_cycle;Max_cycle;Signal;HPM_P1;HPM_P2
2021/12/08 00:00:47;;;;;;;20.50;7.85;;;;;;;3.55;59.93;98093.84;4486852;32;20455;-78
2021/12/08 00:03:14;;;;;;;20.92;7.85;;;;;;;3.59;59.88;98095.44;4472656;32;20135;-78
2021/12/08 00:05:41;;;;;;;19.55;7.07;;;;;;;3.60;59.81;98097.13;4487034;32;20111;-79
2021/12/08 00:08:08;;;;;;;19.50;7.27;;;;;;;3.32;59.74;98095.56;4471447;32;20496;-77
2021/12/08 00:13:04;;;;;;;21.98;7.68;;;;;;;3.65;58.74;98094.34;4486646;31;20092;-76
2021/12/08 00:15:50;;;;;;;20.85;8.07;;;;;;;3.67;58.55;98090.81;4488218;31;20477;-78
2021/12/08 00:18:20;;;;;;;20.58;7.87;;;;;;;3.70;58.63;98097.63;4502148;31;20203;-78
2021/12/08 00:20:47;;;;;;;20.58;7.55;;;;;;;3.77;58.34;98101.72;4502276;31;20114;-78
2021/12/08 00:23:13;;;;;;;22.02;8.18;;;;;;;3.79;58.36;98106.88;4502184;31;20091;-78
2021/12/08 00:25:39;;;;;;;21.77;8.10;;;;;;;3.81;58.39;98105.91;4502169;31;20151;-78
2021/12/08 00:28:06;;;;;;;20.33;7.75;;;;;;;3.84;58.45;98110.97;4502078;31;20508;-78
2021/12/08 00:30:32;;;;;;;20.95;7.78;;;;;;;3.82;58.66;98119.75;4487719;31;20469;-78
2021/12/08 00:32:59;;;;;;;20.80;7.90;;;;;;;3.81;58.54;98110.28;4502097;31;20118;-78
2021/12/08 00:35:26;;;;;;;21.55;7.70;;;;;;;3.62;58.73;98115.31;4484712;32;20559;-78
2021/12/08 00:37:52;;;;;;;23.33;7.10;;;;;;;3.74;58.37;98115.69;4487582;31;20087;-78
2021/12/08 00:40:18;;;;;;;21.02;7.45;;;;;;;3.67;58.46;98122.06;4477859;32;20106;-78
2021/12/08 00:42:45;;;;;;;18.98;7.40;;;;;;;3.66;58.44;98115.12;4486163;32;20176;-78
2021/12/08 00:45:12;;;;;;;16.93;8.03;;;;;;;3.73;58.47;98113.16;4493884;31;20118;-77
2021/12/08 00:47:38;;;;;;;18.05;7.37;;;;;;;3.80;58.61;98108.56;4502047;31;20215;-78
2021/12/08 00:50:07;;;;;;;17.92;7.35;;;;;;;3.75;58.52;98108.75;4483825;32;20080;-78
2021/12/08 00:52:32;;;;;;;19.73;7.50;;;;;;;3.55;58.92;98117.28;4485942;32;20088;-78
2021/12/08 00:54:59;;;;;;;18.70;7.12;;;;;;;3.66;58.53;98119.50;4486053;32;20493;-78
2021/12/08 00:57:25;;;;;;;19.12;7.32;;;;;;;3.69;58.51;98129.78;4495889;31;20084;-78
2021/12/08 00:59:50;;;;;;;20.23;6.78;;;;;;;3.63;58.70;98128.28;4501705;31;20183;-78
2021/12/08 01:02:16;;;;;;;20.25;7.12;;;;;;;3.73;58.36;98136.59;4474313;31;20096;-78
2021/12/08 01:04:41;;;;;;;19.02;6.93;;;;;;;3.78;58.20;98133.81;4501654;31;20084;-78
2021/12/08 01:07:07;;;;;;;18.73;6.62;;;;;;;3.74;58.16;98135.69;4501399;31;20092;-78
2021/12/08 01:09:33;;;;;;;19.37;6.90;;;;;;;3.70;58.08;98127.13;4501464;31;20076;-78
2021/12/08 01:12:01;;;;;;;19.90;7.00;;;;;;;3.51;58.66;98133.94;4486996;31;20107;-78
2021/12/08 01:14:30;;;;;;;;;;;;;;;3.42;58.55;98123.84;4501762;31;20100;-78
2021/12/08 01:16:56;;;;;;;21.52;7.40;;;;;;;3.66;58.00;98128.16;4501492;31;19967;-78
2021/12/08 01:19:21;;;;;;;18.80;7.68;;;;;;;3.63;57.93;98132.63;4502830;31;20136;-78
2021/12/08 01:21:47;;;;;;;19.33;7.00;;;;;;;3.46;58.32;98123.69;4503595;31;20494;-78
2021/12/08 01:24:12;;;;;;;19.67;8.05;;;;;;;3.50;58.25;98120.06;4503591;31;20091;-76
2021/12/08 01:26:38;;;;;;;21.33;7.97;;;;;;;3.43;58.50;98115.12;4488829;31;20075;-78
2021/12/08 01:29:03;;;;;;;17.77;7.20;;;;;;;3.27;58.87;98109.66;4489234;31;20103;-78
2021/12/08 01:31:29;;;;;;;20.70;7.57;;;;;;;3.44;58.39;98103.81;4503469;31;20093;-78
2021/12/08 01:33:55;;;;;;;20.12;7.90;;;;;;;3.49;58.28;98096.69;4503614;31;20468;-77
2021/12/08 01:36:20;;;;;;;23.23;8.63;;;;;;;3.47;58.16;98088.91;4503708;31;20119;-78
2021/12/08 01:38:46;;;;;;;23.00;8.82;;;;;;;3.42;58.21;98093.47;4489213;31;20157;-78
2021/12/08 01:41:12;;;;;;;19.92;7.85;;;;;;;3.32;58.54;98089.47;4503533;31;20093;-78
2021/12/08 01:46:28;;;;;;;24.15;8.38;;;;;;;3.35;58.69;98085.03;4469513;32;20165;-78
2021/12/08 01:48:53;;;;;;;24.73;8.70;;;;;;;3.45;58.40;98076.88;4456612;32;20207;-78
2021/12/08 01:51:19;;;;;;;23.15;8.68;;;;;;;3.47;58.39;98077.66;4469656;32;20116;-78
2021/12/08 01:53:53;;;;;;;20.17;8.13;;;;;;;3.44;58.61;98077.78;4469992;32;20124;-78
2021/12/08 01:56:20;;;;;;;22.13;7.75;;;;;;;3.44;58.65;98068.22;4456926;32;20521;-78
2021/12/08 01:58:47;;;;;;;19.83;7.70;;;;;;;3.50;58.52;98072.34;4469989;32;20729;-78
2021/12/08 02:01:14;;;;;;;20.70;6.90;;;;;;;3.50;58.49;98073.19;4469913;32;20475;-78
2021/12/08 02:03:40;;;;;;;19.58;6.82;;;;;;;3.49;58.50;98066.28;4469973;32;20100;-77
2021/12/08 02:06:08;;;;;;;21.77;7.97;;;;;;;3.55;58.48;98070.41;4469878;32;20554;-78
2021/12/08 02:08:34;;;;;;;17.77;6.80;;;;;;;3.57;58.26;98071.19;4469925;32;20089;-78
2021/12/08 02:11:02;;;;;;;20.73;7.20;;;;;;;3.55;58.22;98070.41;4444135;32;20189;-77
2021/12/08 02:13:35;;;;;;;19.35;7.15;;;;;;;3.56;58.17;98066.91;4457045;32;20108;-78
2021/12/08 02:16:01;;;;;;;22.00;7.97;;;;;;;3.32;58.62;98055.66;4457431;32;20122;-78
2021/12/08 02:18:26;;;;;;;22.95;8.65;;;;;;;3.48;58.07;98048.97;4469462;32;20093;-78
2021/12/08 02:20:52;;;;;;;21.92;7.93;;;;;;;3.45;58.05;98043.88;4443492;32;20148;-78
2021/12/08 02:23:18;;;;;;;20.33;8.05;;;;;;;3.38;58.14;98034.63;4483993;31;20108;-78
2021/12/08 02:25:45;;;;;;;21.08;8.60;;;;;;;3.44;58.14;98033.50;4503290;31;20585;-78
2021/12/08 02:28:12;;;;;;;21.85;8.50;;;;;;;3.43;58.26;98039.63;4488818;31;20518;-78
2021/12/08 02:47:14;;;;;;;20.80;7.65;;;;;;;3.04;58.87;98046.25;4474974;32;20110;-76
2021/12/08 02:49:40;;;;;;;19.02;6.70;;;;;;;3.17;58.47;98045.78;4475462;32;20455;-77
2021/12/08 02:52:08;;;;;;;19.42;7.32;;;;;;;3.22;58.51;98056.91;4487222;32;20097;-78
2021/12/08 02:54:35;;;;;;;;;;;;;;;3.25;58.58;98065.44;4487576;32;20467;-77
2021/12/08 02:57:01;;;;;;;17.65;6.87;;;;;;;3.29;58.70;98071.41;4472986;32;20331;-76
2021/12/08 02:59:26;;;;;;;20.62;6.82;;;;;;;3.28;58.78;98073.16;4487146;32;20119;-77
2021/12/08 03:01:52;;;;;;;17.75;6.43;;;;;;;3.31;58.89;98066.97;4487135;32;20084;-78
2021/12/08 03:04:17;;;;;;;19.15;6.47;;;;;;;3.29;59.02;98072.22;4487141;32;20407;-77
2021/12/08 03:06:43;;;;;;;19.30;6.80;;;;;;;3.32;59.03;98077.34;4487036;32;20182;-78
2021/12/08 03:09:08;;;;;;;18.17;7.60;;;;;;;3.29;58.98;98082.66;4487133;32;20088;-77
2021/12/08 03:11:35;;;;;;;20.88;7.28;;;;;;;3.29;58.90;98079.19;4486997;32;20100;-78
2021/12/08 03:14:07;;;;;;;19.00;6.95;;;;;;;3.29;58.89;98076.59;4487144;32;20113;-76
2021/12/08 03:16:35;;;;;;;18.17;7.15;;;;;;;3.31;58.88;98072.19;4487168;32;20119;-78
2021/12/08 03:19:01;;;;;;;17.27;6.72;;;;;;;3.32;58.85;98068.66;4472822;32;20149;-77
2021/12/08 03:21:31;;;;;;;20.27;7.28;;;;;;;3.31;59.07;98082.59;4487057;32;20137;-77
2021/12/08 03:26:44;;;;;;;18.77;6.68;;;;;;;3.24;58.70;98060.28;4486998;32;20113;-78
2021/12/08 03:29:20;;;;;;;18.00;6.65;;;;;;;3.30;58.54;98058.31;4487012;32;20077;-77
2021/12/08 03:31:47;;;;;;;20.42;7.32;;;;;;;3.34;58.55;98059.91;4473910;32;20557;-78
2021/12/08 03:34:14;;;;;;;16.08;6.45;;;;;;;3.35;58.61;98051.19;4486900;32;20087;-78
2021/12/08 03:36:39;;;;;;;21.25;7.70;;;;;;;3.37;58.68;98051.13;4486944;32;20168;-78
2021/12/08 03:39:06;;;;;;;19.02;6.82;;;;;;;3.30;58.62;98058.31;4486826;32;20111;-78
2021/12/08 03:41:34;;;;;;;17.48;6.50;;;;;;;3.37;58.25;98058.09;4471513;32;20108;-78
2021/12/08 03:44:00;;;;;;;18.58;7.12;;;;;;;3.42;57.92;98059.63;4486817;32;20145;-78
2021/12/08 03:46:28;;;;;;;17.95;7.22;;;;;;;3.42;58.01;98061.34;4486674;32;20163;-78
2021/12/08 03:48:54;;;;;;;17.55;6.55;;;;;;;3.43;58.20;98052.66;4487053;32;20088;-78
2021/12/08 03:51:19;;;;;;;19.90;6.78;;;;;;;3.45;58.15;98048.22;4498017;31;20436;-78
2021/12/08 03:53:45;;;;;;;20.00;7.03;;;;;;;3.43;58.13;98045.69;4502894;31;20114;-78
2021/12/08 03:56:11;;;;;;;16.10;6.85;;;;;;;3.44;58.08;98043.91;4488305;31;20091;-78
2021/12/08 03:58:36;;;;;;;19.08;6.40;;;;;;;3.39;58.11;98046.72;4502722;31;20067;-77
2021/12/08 04:01:04;;;;;;;19.67;6.43;;;;;;;3.42;58.00;98059.63;4502863;31;20118;-78
2021/12/08 04:03:32;;;;;;;17.80;6.25;;;;;;;3.39;58.05;98066.69;4488344;31;20103;-78
2021/12/08 04:06:02;;;;;;;18.77;6.60;;;;;;;3.40;57.85;98063.16;4502679;31;20113;-78
2021/12/08 04:08:39;;;;;;;16.12;5.78;;;;;;;3.42;57.86;98061.34;4502706;31;20076;-78
2021/12/08 04:11:05;;;;;;;18.70;6.53;;;;;;;3.39;57.81;98059.72;4489293;31;20151;-78
2021/12/08 04:13:51;;;;;;;17.08;6.15;;;;;;;3.34;57.70;98067.72;4488236;31;20560;-78
2021/12/08 04:16:20;;;;;;;16.92;6.90;;;;;;;3.33;57.83;98072.97;4488285;31;20085;-78
2021/12/08 04:18:46;;;;;;;20.65;6.75;;;;;;;3.29;58.00;98063.59;4502631;31;20151;-78
2021/12/08 04:21:12;;;;;;;18.25;6.93;;;;;;;3.25;58.25;98070.66;4502487;31;20092;-78
2021/12/08 04:23:40;;;;;;;19.75;6.93;;;;;;;3.24;58.27;98071.53;4502317;31;20167;-78
2021/12/08 04:26:11;;;;;;;17.15;6.43;;;;;;;3.18;58.25;98071.78;4502119;31;20080;-78
2021/12/08 04:28:36;;;;;;;19.98;7.18;;;;;;;3.21;58.04;98071.66;4487755;31;20075;-78
2021/12/08 04:31:13;;;;;;;17.90;6.85;;;;;;;2.95;58.22;98063.06;4487653;31;20126;-78
2021/12/08 04:33:39;;;;;;;20.85;7.40;;;;;;;3.17;57.88;98062.28;4487819;31;20104;-78
2021/12/08 04:36:08;;;;;;;17.87;6.30;;;;;;;3.20;57.70;98059.56;4502118;31;20205;-78
2021/12/08 04:38:39;;;;;;;20.37;7.28;;;;;;;3.22;57.73;98062.09;4474575;31;20576;-77
2021/12/08 04:41:13;;;;;;;19.52;7.00;;;;;;;3.12;57.93;98058.97;4488113;31;20160;-78
2021/12/08 04:44:10;;;;;;;17.73;6.62;;;;;;;3.20;57.91;98063.91;4487908;31;20218;-78
2021/12/08 04:47:12;;;;;;;19.08;6.90;;;;;;;3.22;57.93;98065.53;4501783;31;20100;-78
2021/12/08 05:06:23;;;;;;;21.65;7.15;;;;;;;2.80;58.85;98080.94;4504067;31;20511;-78
2021/12/08 05:08:52;;;;;;;17.87;6.82;;;;;;;2.91;58.56;98068.41;4503767;31;20079;-77
2021/12/08 05:11:25;;;;;;;18.08;6.72;;;;;;;2.87;58.77;98072.84;4503831;31;20095;-78
2021/12/08 05:13:56;;;;;;;21.73;7.30;;;;;;;2.86;58.93;98067.72;4503789;31;20092;-77
2021/12/08 05:16:22;;;;;;;19.95;7.05;;;;;;;2.89;58.84;98078.84;4503774;31;20380;-77
2021/12/08 05:18:50;;;;;;;16.95;7.30;;;;;;;2.82;58.75;98074.78;4489365;31;20075;-77
2021/12/08 05:21:30;;;;;;;17.83;6.82;;;;;;;2.89;57.92;98070.22;4503794;31;20079;-78
2021/12/08 05:24:04;;;;;;;18.83;7.22;;;;;;;2.75;58.13;98061.12;4503853;31;20096;-77
2021/12/08 05:26:39;;;;;;;18.25;7.43;;;;;;;2.59;58.58;98069.50;4503756;31;20168;-78
2021/12/08 05:29:31;;;;;;;24.33;7.95;;;;;;;2.60;58.53;98074.66;4503700;31;20087;-78
2021/12/08 05:31:58;;;;;;;22.95;7.85;;;;;;;2.55;58.71;98080.03;4503357;31;20221;-78
2021/12/08 05:34:23;;;;;;;20.40;7.30;;;;;;;2.55;59.00;98077.44;4503909;31;20123;-78
2021/12/08 05:36:49;;;;;;;21.48;7.95;;;;;;;2.30;59.65;98060.97;4503919;31;20449;-78
2021/12/08 05:39:20;;;;;;;22.33;8.60;;;;;;;2.50;59.23;98053.31;4503877;31;20355;-78
2021/12/08 05:41:47;;;;;;;24.27;9.38;;;;;;;2.56;59.25;98045.31;4489181;31;20450;-77
2021/12/08 05:44:12;;;;;;;26.15;9.73;;;;;;;2.51;59.65;98048.97;4503578;31;20402;-81
2021/12/08 05:46:43;;;;;;;25.12;8.18;;;;;;;2.51;59.68;98055.03;4503390;31;20124;-80
2021/12/08 05:49:12;;;;;;;22.58;8.70;;;;;;;2.61;59.55;98058.19;4489217;31;20107;-86
2021/12/08 05:51:38;;;;;;;21.92;8.48;;;;;;;2.66;59.50;98063.19;4503581;31;20518;-80
2021/12/08 05:54:11;;;;;;;21.42;7.95;;;;;;;2.72;59.14;98045.66;4503585;31;20110;-79
2021/12/08 05:56:37;;;;;;;22.00;8.23;;;;;;;2.72;58.89;98060.38;4489705;31;20450;-80
2021/12/08 05:59:05;;;;;;;23.98;8.10;;;;;;;2.62;59.02;98072.84;4503871;31;20106;-80
2021/12/08 06:01:30;;;;;;;;;;;;;;;2.65;58.92;98062.38;4503745;31;20080;-81
2021/12/08 06:03:56;;;;;;;20.83;7.25;;;;;;;2.67;58.99;98065.75;4503446;31;20295;-80
2021/12/08 06:06:23;;;;;;;24.15;9.35;;;;;;;2.68;58.90;98067.44;4488276;31;20165;-79
2021/12/08 06:08:49;;;;;;;23.73;8.75;;;;;;;2.59;59.41;98067.78;4503420;31;20107;-80
2021/12/08 06:11:16;;;;;;;25.48;9.18;;;;;;;2.62;59.43;98069.41;4489054;31;20091;-79
2021/12/08 06:13:43;;;;;;;25.58;9.02;;;;;;;2.62;59.59;98066.81;4503318;31;20096;-80
2021/12/08 06:16:11;;;;;;;25.42;9.43;;;;;;;2.62;59.49;98067.66;4489051;31;20104;-79
2021/12/08 06:18:39;;;;;;;22.90;8.88;;;;;;;2.62;59.64;98072.84;4503321;31;20087;-80
2021/12/08 06:21:08;;;;;;;24.63;9.30;;;;;;;2.54;59.94;98072.28;4500974;31;20140;-78
2021/12/08 06:23:35;;;;;;;24.05;9.40;;;;;;;2.64;59.73;98071.06;4485476;31;20445;-85
2021/12/08 06:26:01;;;;;;;21.70;9.05;;;;;;;2.64;59.69;98070.22;4488998;31;20128;-75
2021/12/08 06:28:27;;;;;;;24.20;9.13;;;;;;;2.68;59.59;98072.63;4503051;31;20110;-75
2021/12/08 06:30:52;;;;;;;21.40;8.48;;;;;;;2.46;60.01;98082.94;4488570;31;20122;-76
2021/12/08 06:33:20;;;;;;;23.80;9.07;;;;;;;2.64;59.80;98071.06;4503079;31;20087;-76
2021/12/08 06:35:52;;;;;;;23.05;9.20;;;;;;;2.74;59.53;98074.19;4502775;31;20083;-79
2021/12/08 06:38:19;;;;;;;21.25;8.32;;;;;;;2.79;59.50;98077.50;4488833;31;20451;-77
2021/12/08 06:41:00;;;;;;;24.35;9.23;;;;;;;2.86;59.31;98073.78;4503038;31;20076;-76
2021/12/08 06:43:29;;;;;;;24.33;9.48;;;;;;;2.87;59.29;98077.22;4503155;31;20123;-76
2021/12/08 06:45:57;;;;;;;23.60;9.60;;;;;;;2.95;59.09;98075.19;4502865;31;20110;-76
2021/12/08 06:48:26;;;;;;;22.33;9.23;;;;;;;2.95;59.08;98070.00;4488334;31;20154;-76
2021/12/08 06:51:06;;;;;;;24.20;8.73;;;;;;;3.03;58.89;98075.75;4502825;31;20099;-75
2021/12/08 06:53:32;;;;;;;28.38;9.25;;;;;;;2.82;59.11;98079.13;4488799;31;20470;-75
2021/12/08 06:56:06;;;;;;;24.87;9.30;;;;;;;2.63;59.86;98084.12;4488591;31;20199;-78
2021/12/08 06:58:36;;;;;;;25.00;9.73;;;;;;;2.82;59.64;98080.00;4488211;31;20092;-74
2021/12/08 07:01:29;;;;;;;25.42;10.00;;;;;;;2.97;59.61;98077.75;4488221;31;20088;-75
2021/12/08 07:07:00;;;;;;;23.87;9.30;;;;;;;3.16;59.75;98065.78;4490086;31;20092;-79
2021/12/08 07:09:52;;;;;;;23.73;9.82;;;;;;;3.31;59.26;98062.63;4488516;31;20106;-74
2021/12/08 07:12:25;;;;;;;25.95;9.65;;;;;;;3.39;58.67;98071.91;4491707;31;20091;-75
2021/12/08 07:15:15;;;;;;;23.92;9.85;;;;;;;3.36;58.19;98062.44;4488587;31;20088;-75
2021/12/08 07:17:41;;;;;;;;;;;;;;;3.38;57.81;98062.38;4502673;31;20079;-76
2021/12/08 07:22:41;;;;;;;23.70;8.77;;;;;;;3.47;57.49;98059.44;4488697;31;20096;-75
2021/12/08 07:25:07;;;;;;;21.92;9.07;;;;;;;3.47;57.54;98067.25;4474905;31;20156;-75
2021/12/08 07:27:34;;;;;;;22.65;8.55;;;;;;;3.52;57.30;98074.00;4501360;31;20112;-75
2021/12/08 07:30:05;;;;;;;23.40;9.05;;;;;;;3.48;56.90;98066.34;4485392;32;20147;-75
2021/12/08 07:32:34;;;;;;;20.85;8.30;;;;;;;3.41;56.98;98070.09;4486913;31;20103;-75
2021/12/08 07:35:05;;;;;;;21.95;8.70;;;;;;;3.50;57.01;98070.59;4486713;31;20161;-75
2021/12/08 07:37:33;;;;;;;19.55;8.43;;;;;;;3.56;56.90;98066.06;4486573;31;20153;-75
2021/12/08 07:40:17;;;;;;;22.55;9.52;;;;;;;3.59;57.06;98065.94;4486868;31;20155;-74
2021/12/08 07:42:50;;;;;;;22.30;8.68;;;;;;;3.61;57.20;98056.31;4486628;31;20080;-75
2021/12/08 07:45:25;;;;;;;24.25;9.32;;;;;;;3.66;57.10;98068.25;4486221;31;20108;-75
2021/12/08 07:47:52;;;;;;;22.58;8.43;;;;;;;3.74;56.73;98074.00;4486769;31;20117;-75
2021/12/08 07:50:21;;;;;;;22.10;9.30;;;;;;;3.85;56.23;98071.00;4486475;31;20092;-74
2021/12/08 07:52:49;;;;;;;20.92;9.20;;;;;;;3.89;55.71;98066.53;4486645;31;20468;-75
2021/12/08 07:55:19;;;;;;;26.75;9.30;;;;;;;3.81;55.68;98081.63;4493656;31;20091;-76
2021/12/08 07:57:45;;;;;;;22.85;8.88;;;;;;;3.77;56.10;98069.59;4502424;31;20084;-73
2021/12/08 08:00:26;;;;;;;20.95;8.30;;;;;;;3.82;55.94;98078.09;4487765;31;20088;-76
2021/12/08 08:02:53;;;;;;;21.83;8.60;;;;;;;3.80;55.70;98077.28;4488038;31;20143;-76
2021/12/08 08:05:22;;;;;;;24.27;8.77;;;;;;;3.83;55.31;98071.97;4488045;31;20096;-76
2021/12/08 08:07:49;;;;;;;23.48;9.65;;;;;;;3.87;55.41;98073.56;4502270;31;20111;-76
2021/12/08 08:10:15;;;;;;;23.52;9.43;;;;;;;3.93;55.86;98073.31;4502176;31;20087;-75
2021/12/08 08:12:44;;;;;;;24.65;9.88;;;;;;;3.97;55.99;98082.69;4502000;31;20088;-76
2021/12/08 08:15:21;;;;;;;24.05;9.48;;;;;;;4.02;55.38;98080.78;4487896;31;20120;-75
2021/12/08 08:17:50;;;;;;;24.85;10.05;;;;;;;4.03;55.12;98087.66;4487946;31;20424;-74
2021/12/08 08:20:26;;;;;;;25.17;10.10;;;;;;;4.02;54.87;98079.91;4488481;31;20079;-77
2021/12/08 08:22:53;;;;;;;25.83;10.32;;;;;;;4.08;55.05;98085.72;4502397;31;20106;-76
2021/12/08 08:25:22;;;;;;;25.67;11.63;;;;;;;4.13;54.73;98083.81;4502011;31;20507;-76
2021/12/08 08:27:47;;;;;;;26.85;11.82;;;;;;;4.03;54.74;98087.66;4502410;31;20173;-76
2021/12/08 08:30:19;;;;;;;27.20;11.75;;;;;;;4.02;55.30;98083.38;4504211;31;20461;-77
2021/12/08 08:32:48;;;;;;;36.47;13.50;;;;;;;4.02;55.45;98085.97;4489787;31;20072;-76
2021/12/08 08:35:28;;;;;;;32.90;13.13;;;;;;;4.09;55.44;98089.19;4488417;32;20147;-77
2021/12/08 08:37:54;;;;;;;31.08;13.00;;;;;;;4.12;55.84;98095.13;4488508;32;20515;-79
2021/12/08 08:40:24;;;;;;;32.38;13.30;;;;;;;4.14;56.08;98095.91;4461215;32;20092;-79
2021/12/08 08:42:51;;;;;;;30.62;13.85;;;;;;;4.11;56.04;98092.56;4488367;32;20127;-79
2021/12/08 08:45:21;;;;;;;32.13;14.38;;;;;;;4.13;55.77;98099.44;4473978;32;20100;-79
2021/12/08 08:48:00;;;;;;;32.50;14.68;;;;;;;4.13;55.99;98094.22;4473842;32;20152;-79
2021/12/08 08:50:34;;;;;;;35.58;14.80;;;;;;;4.22;56.03;98087.78;4459202;32;20084;-79
2021/12/08 08:53:00;;;;;;;41.15;16.80;;;;;;;4.28;56.12;98091.91;4473826;32;20128;-79
2021/12/08 08:55:32;;;;;;;35.53;16.30;;;;;;;4.32;56.40;98089.09;4473943;32;20395;-79
2021/12/08 08:57:58;;;;;;;38.88;16.58;;;;;;;4.39;56.49;98094.09;4488230;32;20106;-79
2021/12/08 09:00:36;;;;;;;45.92;19.02;;;;;;;4.46;56.61;98095.53;4473830;32;20084;-79
2021/12/08 09:03:07;;;;;;;46.17;17.62;;;;;;;4.50;56.67;98095.34;4473787;32;20431;-79
2021/12/08 09:05:37;;;;;;;37.70;16.30;;;;;;;4.56;56.71;98086.44;4488189;32;20459;-79
2021/12/08 09:08:06;;;;;;;38.85;15.80;;;;;;;4.63;56.68;98084.41;4473669;32;20100;-79
2021/12/08 09:10:59;;;;;;;38.30;17.27;;;;;;;4.66;56.60;98079.06;4488043;32;20102;-79
2021/12/08 09:13:34;;;;;;;36.90;15.93;;;;;;;4.70;56.45;98071.03;4471111;32;20340;-79
2021/12/08 09:16:08;;;;;;;37.50;15.57;;;;;;;4.76;55.95;98079.53;4473637;32;20104;-79
2021/12/08 09:18:49;;;;;;;34.85;16.20;;;;;;;4.73;56.17;98073.53;4487971;32;20115;-79
2021/12/08 09:21:29;;;;;;;37.08;16.50;;;;;;;4.78;56.18;98075.09;4488222;32;20104;-79
2021/12/08 09:23:56;;;;;;;38.22;16.65;;;;;;;4.84;55.77;98067.00;4473579;32;20106;-79
2021/12/08 09:26:23;;;;;;;42.75;16.85;;;;;;;4.82;56.12;98069.66;4487793;32;20390;-79
2021/12/08 09:29:01;;;;;;;38.00;16.98;;;;;;;4.84;56.15;98069.59;4473518;32;20119;-79
2021/12/08 09:31:32;;;;;;;40.55;16.35;;;;;;;4.84;56.03;98067.81;4487901;32;20601;-79
2021/12/08 09:34:08;;;;;;;38.38;16.12;;;;;;;5.03;55.11;98059.22;4487952;32;20064;-79
2021/12/08 09:36:42;;;;;;;35.78;16.77;;;;;;;4.97;54.97;98060.31;4487886;32;20194;-79
2021/12/08 09:39:21;;;;;;;39.53;16.55;;;;;;;4.98;55.05;98058.56;4473658;32;20147;-79
2021/12/08 09:41:48;;;;;;;;;;;;;;;4.98;55.13;98054.19;4488296;32;20084;-79
2021/12/08 09:44:18;;;;;;;42.60;15.82;;;;;;;4.87;55.73;98046.81;4473610;32;19972;-79
2021/12/08 09:46:47;;;;;;;46.03;18.15;;;;;;;4.95;55.33;98046.50;4487596;32;20100;-79
2021/12/08 09:49:14;;;;;;;42.15;16.75;;;;;;;4.89;55.62;98045.00;4473419;32;20123;-79
2021/12/08 09:51:40;;;;;;;42.35;17.67;;;;;;;4.91;55.58;98034.50;4473495;32;20110;-79
2021/12/08 09:54:06;;;;;;;38.08;17.55;;;;;;;4.84;55.63;98035.66;4487624;32;20072;-79
2021/12/08 09:56:33;;;;;;;40.15;17.70;;;;;;;4.89;55.51;98039.78;4487775;32;20438;-79
2021/12/08 09:59:01;;;;;;;40.22;16.62;;;;;;;4.93;55.28;98043.09;4487775;32;20205;-79
2021/12/08 10:01:28;;;;;;;40.85;16.73;;;;;;;4.95;55.27;98041.28;4487868;32;20133;-79
2021/12/08 10:03:54;;;;;;;43.63;18.27;;;;;;;4.98;55.39;98035.91;4487885;32;20081;-79
2021/12/08 10:06:21;;;;;;;39.95;17.33;;;;;;;5.06;54.96;98036.44;4473388;32;20139;-79
2021/12/08 10:08:47;;;;;;;44.97;18.33;;;;;;;5.02;54.96;98032.28;4473501;32;20560;-79
2021/12/08 10:11:13;;;;;;;38.72;17.65;;;;;;;5.02;55.11;98020.97;4487629;32;20167;-79
2021/12/08 10:13:39;;;;;;;36.78;17.10;;;;;;;4.94;55.52;98023.91;4487537;32;20107;-79
2021/12/08 10:16:05;;;;;;;42.22;18.02;;;;;;;4.99;55.57;98027.16;4473094;32;20105;-79
2021/12/08 10:18:30;;;;;;;41.10;17.52;;;;;;;4.97;55.51;98023.78;4487453;32;20088;-79
2021/12/08 10:20:56;;;;;;;39.50;16.98;;;;;;;5.10;55.44;98026.72;4473363;32;20487;-79
2021/12/08 10:23:30;;;;;;;39.42;17.33;;;;;;;5.14;55.46;98020.44;4487451;32;20352;-79
2021/12/08 10:26:07;;;;;;;37.97;17.42;;;;;;;5.24;54.94;98013.88;4473244;32;20109;-79
2021/12/08 10:28:39;;;;;;;40.65;16.90;;;;;;;5.19;55.08;98021.06;4473141;32;20602;-79
2021/12/08 10:31:17;;;;;;;40.95;18.08;;;;;;;5.26;55.12;98011.19;4487467;32;20109;-79
2021/12/08 10:39:25;;;;;;;44.85;19.48;;;;;;;5.43;54.52;98013.03;4475372;32;20258;-79
2021/12/08 10:41:59;;;;;;;44.60;20.42;;;;;;;5.39;54.90;98004.50;4473175;32;20094;-79
2021/12/08 10:44:32;;;;;;;47.65;20.95;;;;;;;5.36;54.82;97994.16;4487470;32;20111;-79
2021/12/08 10:46:59;;;;;;;46.40;20.40;;;;;;;5.37;54.73;97995.00;4487138;32;20443;-79
2021/12/08 10:54:49;;;;;;;59.90;25.58;;;;;;;5.36;55.00;97982.88;4487360;32;20133;-79
2021/12/08 10:57:44;;;;;;;61.78;26.45;;;;;;;5.22;55.46;97980.91;4473044;32;20101;-79
2021/12/08 11:00:13;;;;;;;55.08;24.90;;;;;;;5.30;55.34;97984.00;4470710;32;20145;-79
2021/12/08 11:02:56;;;;;;;50.55;23.45;;;;;;;5.29;55.28;97975.34;4487356;32;20092;-79
2021/12/08 11:05:24;;;;;;;50.00;24.45;;;;;;;5.36;54.98;97967.22;4487187;32;20384;-79
2021/12/08 11:08:19;;;;;;;51.20;25.12;;;;;;;5.28;55.12;97975.41;4487104;32;20110;-79
2021/12/08 11:10:48;;;;;;;60.95;25.27;;;;;;;5.31;55.20;97963.06;4484872;32;20114;-79
2021/12/08 11:13:15;;;;;;;54.75;24.75;;;;;;;5.36;55.04;97962.00;4459867;32;20088;-79
2021/12/08 11:15:41;;;;;;;50.63;23.90;;;;;;;5.30;55.06;97958.75;4472882;32;20084;-79
2021/12/08 11:18:26;;;;;;;53.38;23.80;;;;;;;5.32;55.08;97948.22;4487288;32;20531;-79
2021/12/08 11:20:56;;;;;;;50.10;22.50;;;;;;;5.30;55.13;97955.28;4487054;32;20535;-79
2021/12/08 11:23:47;;;;;;;48.22;21.65;;;;;;;5.31;55.16;97954.34;4487127;32;20092;-79
2021/12/08 11:26:15;;;;;;;49.85;21.92;;;;;;;5.30;55.36;97953.53;4475126;32;20152;-79
2021/12/08 11:28:40;;;;;;;54.08;23.10;;;;;;;5.27;55.45;97958.91;4486973;32;20164;-79
2021/12/08 11:31:12;;;;;;;43.97;21.23;;;;;;;5.28;55.19;97951.91;4487106;32;20092;-79
2021/12/08 11:33:42;;;;;;;48.35;21.55;;;;;;;5.28;55.37;97955.34;4472803;32;20110;-79
2021/12/08 11:36:19;;;;;;;50.53;22.15;;;;;;;5.31;55.30;97950.00;4487038;32;20092;-79
2021/12/08 11:38:47;;;;;;;43.67;18.90;;;;;;;5.32;55.20;97956.06;4486953;32;20104;-79
2021/12/08 11:41:35;;;;;;;43.33;18.70;;;;;;;5.31;54.78;97952.63;4486929;32;20589;-79
2021/12/08 11:44:04;;;;;;;44.58;20.37;;;;;;;5.33;54.63;97957.75;4487024;32;20080;-79
2021/12/08 11:46:36;;;;;;;46.92;21.50;;;;;;;5.35;54.59;97950.72;4472490;32;20084;-79
2021/12/08 11:49:04;;;;;;;47.28;20.88;;;;;;;5.40;54.64;97950.47;4472694;32;20162;-79
2021/12/08 11:51:32;;;;;;;44.47;20.25;;;;;;;5.42;54.58;97951.25;4486900;32;20092;-79
2021/12/08 11:53:59;;;;;;;48.08;21.12;;;;;;;5.45;54.41;97951.13;4472618;32;20447;-79
2021/12/08 11:56:36;;;;;;;40.42;19.87;;;;;;;5.45;54.54;97954.56;4472504;32;20106;-79
2021/12/08 11:59:04;;;;;;;43.03;20.27;;;;;;;5.48;54.62;97948.34;4486742;32;20123;-79
2021/12/08 12:01:30;;;;;;;;;;;;;;;5.45;54.15;97951.13;4472947;32;20096;-79
2021/12/08 12:03:55;;;;;;;42.92;18.58;;;;;;;5.47;53.36;97954.50;4471390;32;20266;-79
2021/12/08 12:06:27;;;;;;;47.53;19.30;;;;;;;5.41;53.50;97952.16;4459340;32;20381;-79
2021/12/08 12:08:55;;;;;;;47.50;20.08;;;;;;;5.40;53.57;97945.25;4486720;32;20119;-79
2021/12/08 12:11:24;;;;;;;48.50;21.55;;;;;;;5.47;53.50;97938.84;4486583;32;20538;-79
2021/12/08 12:13:50;;;;;;;49.42;20.50;;;;;;;5.41;53.93;97942.59;4472770;32;20084;-79
2021/12/08 12:16:15;;;;;;;43.50;19.48;;;;;;;5.42;54.17;97935.59;4472504;32;20112;-79
2021/12/08 12:18:41;;;;;;;51.53;21.40;;;;;;;5.42;54.17;97939.03;4472452;32;20188;-79
2021/12/08 12:21:30;;;;;;;49.80;21.65;;;;;;;5.50;53.86;97934.31;4486772;32;20364;-79
2021/12/08 12:24:10;;;;;;;51.75;20.05;;;;;;;5.52;53.67;97929.00;4459133;32;20442;-79
2021/12/08 12:27:15;;;;;;;46.72;20.50;;;;;;;5.51;53.71;97925.53;4459185;32;20102;-79
2021/12/08 12:30:10;;;;;;;48.80;21.05;;;;;;;5.47;53.97;97928.37;4485801;32;20433;-79
2021/12/08 12:32:53;;;;;;;50.15;21.75;;;;;;;5.41;53.93;97926.91;4472073;32;20447;-79
2021/12/08 12:35:24;;;;;;;49.67;21.08;;;;;;;5.28;54.42;97924.03;4486376;32;20080;-79
2021/12/08 12:38:04;;;;;;;46.47;20.02;;;;;;;5.31;54.73;97918.66;4486362;32;20080;-79
2021/12/08 12:40:40;;;;;;;54.83;22.77;;;;;;;5.31;54.87;97929.09;4472308;32;20455;-79
2021/12/08 12:43:06;;;;;;;47.97;20.77;;;;;;;5.25;54.95;97926.78;4486500;32;20121;-79